Time;durP1;ratioP1;P1;durP2;ratioP2;P2;SDS_P1;SDS_P2;PMS_P1;PMS_P2;Temp;Humidity;BMP_temperature;BMP_pressure;BME280_temperature;BME280_humidity;BME280_pressure;Samples;Min_cycle;Max_cycle;Signal;HPM_P1;HPM_P2
2022/10/21 00:00:20;;;;;;;41.45;24.92;;;11.80;99.90;;;;;;5012371;28;20045;-73
2022/10/21 00:02:46;;;;;;;38.25;24.02;;;11.90;99.90;;;;;;5010821;28;20046;-73
2022/10/21 00:05:11;;;;;;;41.47;23.75;;;11.90;99.90;;;;;;5012069;28;20038;-73
2022/10/21 00:07:37;;;;;;;45.05;26.92;;;11.80;99.90;;;;;;5012259;28;20144;-73
2022/10/21 00:10:04;;;;;;;42.17;25.15;;;11.70;99.90;;;;;;5012138;28;20096;-73
2022/10/21 00:12:31;;;;;;;44.45;28.15;;;11.80;99.90;;;;;;5011651;28;20050;-73
2022/10/21 00:14:56;;;;;;;41.28;23.85;;;11.80;99.90;;;;;;5012134;28;20073;-73
2022/10/21 00:17:22;;;;;;;37.15;24.15;;;11.80;99.90;;;;;;5012127;28;20080;-73
2022/10/21 00:19:47;;;;;;;36.95;23.80;;;11.80;99.90;;;;;;5010798;28;20044;-73
2022/10/21 00:22:13;;;;;;;36.45;25.25;;;11.70;99.90;;;;;;5010563;28;20153;-73
2022/10/21 00:24:38;;;;;;;41.45;25.83;;;11.80;99.90;;;;;;5011720;28;20404;-73
2022/10/21 00:27:04;;;;;;;44.42;24.27;;;11.70;99.90;;;;;;5011942;28;20034;-73
2022/10/21 00:29:29;;;;;;;32.88;22.00;;;11.70;99.90;;;;;;5012055;28;20120;-73
2022/10/21 00:31:55;;;;;;;36.28;23.95;;;11.70;99.90;;;;;;5012013;28;20084;-73
2022/10/21 00:34:21;;;;;;;39.72;23.80;;;11.70;99.90;;;;;;5014785;28;20073;-73
2022/10/21 00:36:47;;;;;;;32.10;22.95;;;11.70;99.90;;;;;;5016045;28;20037;-73
2022/10/21 00:39:13;;;;;;;36.05;24.45;;;11.60;99.90;;;;;;5014596;28;20091;-73
2022/10/21 00:41:39;;;;;;;38.25;24.48;;;11.60;99.90;;;;;;5015753;28;20044;-73
2022/10/21 00:44:07;;;;;;;38.40;23.67;;;11.60;99.90;;;;;;5014114;28;20045;-73
2022/10/21 00:46:35;;;;;;;35.70;23.08;;;11.70;99.90;;;;;;5014788;28;20042;-73
2022/10/21 00:49:05;;;;;;;42.42;25.85;;;11.60;99.90;;;;;;5014382;28;20050;-73
2022/10/21 00:51:31;;;;;;;38.53;23.67;;;11.70;99.90;;;;;;5015788;28;20096;-73
2022/10/21 00:53:57;;;;;;;43.55;25.20;;;11.60;99.90;;;;;;5013901;28;20042;-73
2022/10/21 00:56:27;;;;;;;43.78;25.55;;;11.60;99.90;;;;;;5015815;28;20049;-73
2022/10/21 00:58:56;;;;;;;45.35;25.02;;;11.70;99.90;;;;;;5014682;28;20034;-73
2022/10/21 01:01:22;;;;;;;36.63;24.05;;;11.70;99.90;;;;;;5015491;28;20724;-73
2022/10/21 01:03:49;;;;;;;37.10;23.13;;;11.50;99.90;;;;;;5015029;28;20042;-73
2022/10/21 01:06:17;;;;;;;40.03;25.73;;;11.60;99.90;;;;;;5015392;28;20404;-73
2022/10/21 01:08:42;;;;;;;37.50;24.40;;;11.50;99.90;;;;;;5014040;28;20157;-73
2022/10/21 01:11:13;;;;;;;37.70;25.02;;;11.50;99.90;;;;;;5014336;28;20504;-73
2022/10/21 01:13:52;;;;;;;38.35;23.60;;;11.60;99.90;;;;;;5015030;28;20053;-73
2022/10/21 01:16:35;;;;;;;45.38;25.23;;;11.50;99.90;;;;;;5015194;28;20046;-73
2022/10/21 01:19:48;;;;;;;40.08;23.95;;;11.60;99.90;;;;;;5013884;28;20053;-73
2022/10/21 01:22:43;;;;;;;37.97;23.33;;;11.60;99.90;;;;;;4978383;28;20055;-73
2022/10/21 01:25:39;;;;;;;37.38;21.77;;;11.50;99.90;;;;;;5013882;28;20046;-73
2022/10/21 01:28:29;;;;;;;33.67;22.42;;;11.50;99.90;;;;;;5015018;28;20614;-73
2022/10/21 01:31:20;;;;;;;39.33;24.10;;;11.50;99.90;;;;;;5015033;28;20033;-73
2022/10/21 01:34:06;;;;;;;35.15;23.63;;;11.40;99.90;;;;;;5014551;28;20116;-73
2022/10/21 01:37:03;;;;;;;36.15;22.50;;;11.60;99.90;;;;;;5015052;28;20033;-73
2022/10/21 01:39:44;;;;;;;41.35;26.17;;;11.40;99.90;;;;;;5012659;28;20496;-73
2022/10/21 01:42:39;;;;;;;40.13;23.40;;;11.40;99.90;;;;;;5014923;28;20125;-73
2022/10/21 01:45:38;;;;;;;41.22;25.10;;;11.40;99.90;;;;;;5012948;28;20037;-73
2022/10/21 01:48:12;;;;;;;36.97;22.73;;;11.50;99.90;;;;;;5014588;28;20038;-73
2022/10/21 01:50:43;;;;;;;38.63;23.92;;;11.40;99.90;;;;;;5014809;28;20088;-73
2022/10/21 01:53:12;;;;;;;37.13;23.13;;;11.40;99.90;;;;;;5014396;28;20499;-73
2022/10/21 01:55:40;;;;;;;39.72;23.33;;;11.40;99.90;;;;;;5014504;28;20080;-73
2022/10/21 01:58:15;;;;;;;34.75;22.45;;;11.40;99.90;;;;;;5014433;28;20050;-73
2022/10/21 02:00:45;;;;;;;44.38;24.17;;;11.40;99.90;;;;;;5014407;28;20037;-73
2022/10/21 02:03:18;;;;;;;40.90;24.58;;;11.40;99.90;;;;;;5014143;28;20042;-73
2022/10/21 02:05:43;;;;;;;44.40;24.15;;;11.40;99.90;;;;;;5013235;28;20045;-73
2022/10/21 02:08:09;;;;;;;36.97;23.75;;;11.40;99.90;;;;;;5014351;28;20047;-73
2022/10/21 02:10:39;;;;;;;45.40;25.77;;;11.50;99.90;;;;;;5014206;28;20042;-73
2022/10/21 02:13:09;;;;;;;38.90;22.73;;;11.40;99.90;;;;;;5013731;28;20048;-73
2022/10/21 02:15:36;;;;;;;44.10;24.50;;;11.50;99.90;;;;;;5014087;28;20510;-73
2022/10/21 02:18:06;;;;;;;38.03;23.58;;;11.60;99.90;;;;;;5012806;28;20123;-73
2022/10/21 02:20:36;;;;;;;42.17;23.58;;;11.60;99.90;;;;;;5014165;28;20037;-73
2022/10/21 02:23:03;;;;;;;37.70;23.98;;;11.50;99.90;;;;;;5013769;28;20038;-73
2022/10/21 02:25:32;;;;;;;41.28;24.17;;;11.70;99.90;;;;;;5014431;28;20117;-73
2022/10/21 02:27:58;;;;;;;41.03;24.55;;;11.70;99.90;;;;;;5012550;28;20100;-73
2022/10/21 02:30:23;;;;;;;49.28;28.05;;;11.60;99.90;;;;;;5013842;28;20042;-73
2022/10/21 02:33:07;;;;;;;45.22;25.17;;;11.60;99.90;;;;;;5013491;28;20048;-73
2022/10/21 02:35:49;;;;;;;43.33;24.95;;;11.80;99.90;;;;;;5012446;28;20042;-73
2022/10/21 02:38:39;;;;;;;46.88;25.92;;;11.80;99.90;;;;;;5012436;28;20053;-73
2022/10/21 02:41:09;;;;;;;43.25;26.02;;;11.80;99.90;;;;;;5012410;28;20050;-73
2022/10/21 02:43:53;;;;;;;40.25;25.70;;;11.80;99.90;;;;;;5013153;28;20518;-73
2022/10/21 02:46:19;;;;;;;47.58;26.60;;;11.70;99.90;;;;;;5013603;28;20041;-73
2022/10/21 02:48:46;;;;;;;39.15;24.40;;;11.90;99.90;;;;;;5013417;28;20403;-74
2022/10/21 02:51:12;;;;;;;45.22;26.02;;;11.80;99.90;;;;;;5013495;28;20037;-73
2022/10/21 02:53:38;;;;;;;42.65;26.55;;;11.90;99.90;;;;;;5013229;28;20400;-73
2022/10/21 02:56:04;;;;;;;46.10;26.58;;;11.90;99.90;;;;;;5012529;28;20049;-73
2022/10/21 02:58:29;;;;;;;40.78;24.88;;;12.00;99.90;;;;;;5013509;28;20632;-73
2022/10/21 03:00:55;;;;;;;42.53;25.45;;;12.00;99.90;;;;;;5013265;28;20389;-73
2022/10/21 03:03:20;;;;;;;43.20;26.77;;;12.00;99.90;;;;;;5013204;28;20060;-73
2022/10/21 03:05:46;;;;;;;41.22;25.63;;;12.10;99.90;;;;;;5011737;28;20069;-73
2022/10/21 03:08:12;;;;;;;43.88;26.25;;;12.00;99.90;;;;;;5013309;28;20037;-72
2022/10/21 03:10:37;;;;;;;56.70;29.58;;;12.10;99.90;;;;;;5011781;28;20490;-74
2022/10/21 03:13:03;;;;;;;62.05;31.25;;;12.10;99.90;;;;;;5011784;28;20457;-74
2022/10/21 03:15:29;;;;;;;63.97;31.15;;;12.20;99.90;;;;;;5011708;28;20037;-74
2022/10/21 03:17:54;;;;;;;60.50;29.17;;;12.20;99.90;;;;;;5013219;28;20041;-74
2022/10/21 03:20:20;;;;;;;68.80;34.63;;;12.30;99.90;;;;;;5012089;28;20404;-74
2022/10/21 03:22:45;;;;;;;67.90;33.60;;;12.30;99.90;;;;;;5012665;28;20046;-74
2022/10/21 03:25:11;;;;;;;63.72;31.45;;;12.50;99.90;;;;;;5012837;28;20538;-74
2022/10/21 03:27:38;;;;;;;65.00;31.38;;;12.60;99.90;;;;;;5012820;28;20407;-74
2022/10/21 03:30:04;;;;;;;74.60;34.85;;;12.70;99.90;;;;;;5012895;28;20103;-74
2022/10/21 03:32:30;;;;;;;63.58;33.80;;;12.60;99.90;;;;;;5012313;28;20615;-74
2022/10/21 03:34:56;;;;;;;59.08;30.70;;;12.70;99.90;;;;;;5011417;28;20116;-74
2022/10/21 03:37:21;;;;;;;62.70;30.15;;;12.70;99.90;;;;;;5012597;28;20091;-74
2022/10/21 03:39:47;;;;;;;70.22;32.10;;;12.70;99.90;;;;;;5012798;28;20041;-74
2022/10/21 03:42:12;;;;;;;52.90;29.30;;;12.70;99.90;;;;;;5012652;28;20045;-74
2022/10/21 03:44:38;;;;;;;60.97;31.17;;;12.70;99.90;;;;;;5011198;28;20042;-74
2022/10/21 03:47:04;;;;;;;64.38;31.45;;;12.80;99.90;;;;;;5011487;28;20063;-74
2022/10/21 03:49:29;;;;;;;63.45;32.45;;;12.80;99.90;;;;;;5011489;28;20056;-74
2022/10/21 03:51:55;;;;;;;48.88;27.75;;;12.90;99.90;;;;;;5012575;28;20050;-74
2022/10/21 03:54:20;;;;;;;58.25;29.20;;;12.90;99.90;;;;;;5011142;28;20041;-74
2022/10/21 03:56:46;;;;;;;53.80;29.30;;;12.90;99.90;;;;;;5012320;28;20582;-74
2022/10/21 03:59:12;;;;;;;46.28;26.45;;;12.80;99.90;;;;;;5011278;28;20042;-74
2022/10/21 04:01:37;;;;;;;39.65;24.52;;;12.80;99.90;;;;;;5010954;28;20129;-74
2022/10/21 04:04:03;;;;;;;51.83;27.00;;;12.90;99.90;;;;;;5011932;28;20034;-74
2022/10/21 04:06:28;;;;;;;43.03;25.20;;;12.90;99.90;;;;;;5011218;28;20537;-74
2022/10/21 04:08:54;;;;;;;43.15;25.10;;;12.80;99.90;;;;;;5010751;28;20496;-74
2022/10/21 04:11:19;;;;;;;46.92;25.92;;;12.70;99.90;;;;;;5012216;28;20061;-74
2022/10/21 04:13:46;;;;;;;44.40;25.67;;;12.70;99.90;;;;;;5011632;28;20034;-74
2022/10/21 04:16:18;;;;;;;53.38;27.77;;;12.70;99.90;;;;;;5010738;28;20404;-74
2022/10/21 04:18:43;;;;;;;48.53;27.48;;;12.70;99.90;;;;;;5012262;28;20064;-74
2022/10/21 04:21:09;;;;;;;40.20;24.98;;;12.50;99.90;;;;;;5012147;28;20076;-74
2022/10/21 04:23:35;;;;;;;49.92;28.25;;;12.60;99.90;;;;;;5011492;28;20041;-74
2022/10/21 04:26:01;;;;;;;50.03;27.15;;;12.60;99.90;;;;;;5012012;28;20131;-74
2022/10/21 04:28:26;;;;;;;54.50;28.58;;;12.60;99.90;;;;;;5011904;28;20038;-74
2022/10/21 04:30:52;;;;;;;54.92;28.48;;;12.50;99.90;;;;;;5011825;28;20052;-74
2022/10/21 04:33:18;;;;;;;52.25;29.73;;;12.50;99.90;;;;;;5011810;28;20038;-74
2022/10/21 04:35:43;;;;;;;53.22;29.30;;;12.60;99.90;;;;;;5010702;28;20050;-74
2022/10/21 04:38:09;;;;;;;60.42;30.83;;;12.50;99.90;;;;;;5011967;28;20074;-74
2022/10/21 04:40:35;;;;;;;50.15;28.27;;;12.50;99.90;;;;;;5011855;28;20052;-74
2022/10/21 04:43:01;;;;;;;54.08;29.48;;;12.50;99.90;;;;;;5011435;28;20128;-74
2022/10/21 04:45:26;;;;;;;52.05;28.83;;;12.50;99.90;;;;;;5010431;28;20034;-74
2022/10/21 04:47:52;;;;;;;51.25;29.33;;;12.40;99.90;;;;;;5011998;28;20034;-74
2022/10/21 04:50:17;;;;;;;50.92;28.85;;;12.50;99.90;;;;;;5011825;28;20030;-74
2022/10/21 04:52:43;;;;;;;55.03;29.58;;;12.50;99.90;;;;;;5011582;28;20042;-74
2022/10/21 04:55:09;;;;;;;55.92;28.60;;;12.40;99.90;;;;;;5011747;28;20615;-74
2022/10/21 04:57:34;;;;;;;51.67;27.55;;;12.40;99.90;;;;;;5011702;28;20201;-74
2022/10/21 05:00:01;;;;;;;59.40;31.33;;;12.40;99.90;;;;;;5011923;28;20038;-74
2022/10/21 05:02:26;;;;;;;58.78;29.70;;;12.40;99.90;;;;;;5011508;28;20053;-74
2022/10/21 05:04:52;;;;;;;50.35;28.15;;;12.40;99.90;;;;;;5010187;28;20045;-74
2022/10/21 05:07:17;;;;;;;53.35;28.30;;;12.40;99.90;;;;;;5011665;28;20045;-74
2022/10/21 05:09:43;;;;;;;56.55;27.88;;;12.40;99.90;;;;;;5010330;28;20112;-74
2022/10/21 05:12:08;;;;;;;71.00;33.05;;;12.40;99.90;;;;;;5010225;28;20041;-74
2022/10/21 05:14:34;;;;;;;70.78;32.35;;;12.30;99.90;;;;;;5011412;28;20077;-74
2022/10/21 05:17:00;;;;;;;107.15;37.22;;;12.30;99.90;;;;;;5010175;28;20060;-74
2022/10/21 05:19:25;;;;;;;167.82;43.88;;;12.30;99.90;;;;;;5011437;28;20049;-74
2022/10/21 05:21:51;;;;;;;65.95;30.63;;;12.40;99.90;;;;;;5015096;28;20641;-74
2022/10/21 05:24:16;;;;;;;66.38;29.48;;;12.30;99.90;;;;;;5014789;28;20571;-74
2022/10/21 05:26:42;;;;;;;95.15;33.88;;;12.30;99.90;;;;;;5013737;28;20037;-74
2022/10/21 05:29:07;;;;;;;60.13;29.75;;;12.30;99.90;;;;;;5013699;28;20124;-73
2022/10/21 05:31:34;;;;;;;78.07;34.50;;;12.30;99.90;;;;;;5013757;28;20042;-74
2022/10/21 05:33:59;;;;;;;58.53;29.85;;;12.40;99.90;;;;;;5013581;28;20125;-74
2022/10/21 05:36:25;;;;;;;62.67;33.22;;;12.40;99.90;;;;;;5015028;28;20121;-73
2022/10/21 05:38:51;;;;;;;53.25;28.25;;;12.40;99.90;;;;;;5014839;28;20085;-74
2022/10/21 05:41:17;;;;;;;60.28;29.98;;;12.40;99.90;;;;;;5014884;28;20042;-73
2022/10/21 05:43:43;;;;;;;54.20;29.00;;;12.40;99.90;;;;;;5014211;28;20381;-74
2022/10/21 05:46:08;;;;;;;46.63;26.00;;;12.30;99.90;;;;;;5014950;28;20460;-73
2022/10/21 05:48:35;;;;;;;56.15;29.75;;;12.30;99.90;;;;;;5013359;28;20042;-73
2022/10/21 05:51:01;;;;;;;47.13;26.52;;;12.30;99.90;;;;;;5014687;28;20053;-74
2022/10/21 05:53:26;;;;;;;46.05;25.45;;;12.30;99.90;;;;;;5014081;28;20456;-73
2022/10/21 05:56:04;;;;;;;58.92;29.98;;;12.30;99.90;;;;;;5014291;28;20041;-72
2022/10/21 05:58:31;;;;;;;71.00;32.45;;;12.20;99.90;;;;;;5014773;28;20116;-73
2022/10/21 06:00:57;;;;;;;51.80;27.80;;;12.10;99.90;;;;;;5014444;28;20592;-73
2022/10/21 06:03:24;;;;;;;47.25;27.48;;;12.10;99.90;;;;;;5012832;28;20124;-73
2022/10/21 06:05:50;;;;;;;51.08;27.73;;;12.20;99.90;;;;;;5014405;28;20034;-73
2022/10/21 06:08:16;;;;;;;49.88;26.88;;;12.20;99.90;;;;;;5014300;28;20153;-73
2022/10/21 06:10:43;;;;;;;54.85;27.50;;;12.10;99.90;;;;;;5014100;28;20038;-73
2022/10/21 06:13:08;;;;;;;48.60;24.65;;;12.00;99.90;;;;;;5012938;28;20115;-73
2022/10/21 06:15:35;;;;;;;40.67;24.55;;;12.10;99.90;;;;;;5013025;28;20041;-73
2022/10/21 06:18:01;;;;;;;46.85;24.83;;;12.00;99.90;;;;;;5013218;28;20428;-73
2022/10/21 06:20:27;;;;;;;37.05;22.33;;;12.10;99.90;;;;;;5012781;28;20038;-73
2022/10/21 06:22:52;;;;;;;33.00;22.35;;;12.10;99.90;;;;;;5013695;28;20111;-73
2022/10/21 06:25:18;;;;;;;35.85;21.75;;;12.10;99.90;;;;;;5012561;28;20041;-73
2022/10/21 06:27:43;;;;;;;38.45;22.83;;;12.00;99.90;;;;;;5012746;28;20526;-73
2022/10/21 06:30:09;;;;;;;33.75;19.42;;;12.10;99.90;;;;;;5013291;28;20042;-73
2022/10/21 06:32:35;;;;;;;35.83;20.17;;;11.90;99.90;;;;;;5011890;28;20042;-73
2022/10/21 06:35:01;;;;;;;35.10;20.58;;;11.90;99.90;;;;;;5013836;28;20044;-73
2022/10/21 06:37:26;;;;;;;31.77;20.00;;;11.90;99.90;;;;;;5013729;28;20041;-73
2022/10/21 06:39:52;;;;;;;37.60;21.08;;;11.80;99.90;;;;;;5012629;28;20046;-73
2022/10/21 06:42:17;;;;;;;34.00;20.33;;;12.00;99.90;;;;;;5012106;28;20065;-73
2022/10/21 06:44:43;;;;;;;37.95;22.30;;;11.90;99.90;;;;;;5013587;28;20040;-73
2022/10/21 06:47:08;;;;;;;36.28;20.73;;;11.90;99.90;;;;;;5012267;28;20085;-73
2022/10/21 06:49:34;;;;;;;34.90;20.65;;;11.90;99.90;;;;;;5013451;28;20128;-73
2022/10/21 06:51:59;;;;;;;31.65;19.33;;;12.00;99.90;;;;;;5012115;28;20551;-73
2022/10/21 06:54:25;;;;;;;31.00;19.80;;;11.90;99.90;;;;;;5013024;28;20042;-73
2022/10/21 06:56:51;;;;;;;29.08;19.10;;;12.00;99.90;;;;;;5019015;28;20030;-73
2022/10/21 06:59:17;;;;;;;34.35;21.48;;;11.90;99.90;;;;;;5022395;28;20553;-73
2022/10/21 07:01:42;;;;;;;34.70;20.85;;;11.90;99.90;;;;;;5024500;28;20033;-73
2022/10/21 07:04:08;;;;;;;37.35;21.90;;;11.90;99.90;;;;;;5032611;28;20037;-73
2022/10/21 07:06:34;;;;;;;36.53;21.35;;;11.80;99.90;;;;;;5033254;28;20077;-72
2022/10/21 07:09:00;;;;;;;31.05;20.15;;;12.00;99.90;;;;;;5032879;28;20083;-73
2022/10/21 07:11:27;;;;;;;35.15;21.52;;;12.10;99.90;;;;;;5031653;28;20038;-73
2022/10/21 07:13:53;;;;;;;37.80;22.65;;;12.10;99.90;;;;;;5031233;28;20033;-73
2022/10/21 07:16:19;;;;;;;38.67;22.40;;;12.30;99.90;;;;;;5032941;28;20044;-73
2022/10/21 07:18:45;;;;;;;32.80;21.52;;;12.30;99.90;;;;;;5032838;28;20045;-73
2022/10/21 07:21:15;;;;;;;37.10;21.90;;;12.40;99.90;;;;;;5032748;28;20029;-73
2022/10/21 07:23:42;;;;;;;37.83;22.17;;;12.60;99.90;;;;;;5032082;28;20046;-73
2022/10/21 07:26:07;;;;;;;33.90;20.48;;;12.60;99.90;;;;;;5031351;28;20057;-73
2022/10/21 07:28:34;;;;;;;38.35;21.63;;;12.70;99.90;;;;;;5032757;28;20041;-72
2022/10/21 07:30:59;;;;;;;33.90;20.60;;;12.80;99.90;;;;;;5032640;28;20120;-70
2022/10/21 07:33:26;;;;;;;40.60;22.58;;;12.70;99.90;;;;;;5032161;28;20128;-70
2022/10/21 07:36:02;;;;;;;32.22;21.63;;;12.80;99.90;;;;;;5032407;28;20080;-70
2022/10/21 07:38:27;;;;;;;34.38;20.80;;;12.90;99.90;;;;;;5032661;28;20125;-70
2022/10/21 07:40:53;;;;;;;34.90;21.02;;;12.70;99.90;;;;;;5017147;28;20120;-70
2022/10/21 07:43:18;;;;;;;35.20;21.38;;;12.60;99.90;;;;;;5011986;28;20128;-71
2022/10/21 07:45:44;;;;;;;36.22;20.65;;;12.60;99.90;;;;;;5012516;28;20044;-70
2022/10/21 07:48:10;;;;;;;36.58;23.00;;;12.60;99.90;;;;;;5011232;28;20044;-70
2022/10/21 07:50:36;;;;;;;37.28;21.83;;;12.50;99.90;;;;;;5012322;28;20041;-71
2022/10/21 07:53:05;;;;;;;33.95;20.10;;;12.70;99.90;;;;;;5012971;28;20488;-71
2022/10/21 07:55:30;;;;;;;33.20;22.08;;;12.70;99.90;;;;;;5012905;28;20045;-71
2022/10/21 07:57:56;;;;;;;33.60;20.63;;;12.50;99.90;;;;;;5012480;28;20385;-71
2022/10/21 08:00:21;;;;;;;35.55;21.60;;;12.60;99.90;;;;;;5012271;28;20030;-71
2022/10/21 08:02:52;;;;;;;38.75;23.48;;;12.80;99.90;;;;;;5011950;28;20085;-71
2022/10/21 08:05:17;;;;;;;40.97;24.65;;;12.70;99.90;;;;;;5010600;28;20117;-71
2022/10/21 08:07:43;;;;;;;35.78;22.50;;;13.00;99.90;;;;;;5011522;28;20112;-71
2022/10/21 08:10:09;;;;;;;35.85;22.10;;;13.00;99.90;;;;;;5010400;28;20034;-71
2022/10/21 08:12:34;;;;;;;39.08;23.70;;;13.00;99.90;;;;;;5011798;28;20108;-71
2022/10/21 08:15:00;;;;;;;35.95;23.02;;;13.20;99.90;;;;;;5012049;28;20499;-70
2022/10/21 08:17:25;;;;;;;38.70;23.85;;;13.20;99.90;;;;;;5012111;28;20049;-70
2022/10/21 08:19:51;;;;;;;40.38;23.02;;;13.30;99.90;;;;;;5011748;28;20038;-71
2022/10/21 08:22:16;;;;;;;36.20;21.80;;;13.20;99.90;;;;;;5011694;28;20030;-69
2022/10/21 08:24:42;;;;;;;39.33;22.98;;;13.30;99.90;;;;;;5011988;28;20553;-70
2022/10/21 08:27:07;;;;;;;33.70;20.60;;;13.40;99.90;;;;;;5012011;28;20072;-68
2022/10/21 08:29:33;;;;;;;31.90;20.83;;;13.50;99.90;;;;;;5012067;28;20380;-67
2022/10/21 08:31:58;;;;;;;32.58;22.65;;;13.60;99.90;;;;;;5018742;28;20403;-67
2022/10/21 08:34:24;;;;;;;35.20;21.77;;;13.80;99.90;;;;;;5024987;28;20446;-68
2022/10/21 08:36:49;;;;;;;32.00;20.23;;;13.80;99.90;;;;;;5024739;28;20041;-68
2022/10/21 08:39:15;;;;;;;29.98;20.42;;;14.20;99.90;;;;;;5022333;28;20052;-68
2022/10/21 08:42:04;;;;;;;38.85;21.88;;;14.30;99.90;;;;;;5026245;28;20384;-68
2022/10/21 08:44:37;;;;;;;26.15;19.02;;;14.30;99.90;;;;;;5031230;28;20054;-69
2022/10/21 08:47:44;;;;;;;31.35;19.63;;;14.50;99.90;;;;;;5031458;28;20065;-67
2022/10/21 08:50:14;;;;;;;35.78;22.13;;;14.60;99.90;;;;;;4989773;28;20074;-67
2022/10/21 08:52:58;;;;;;;35.55;20.58;;;14.80;99.90;;;;;;5025362;28;20504;-67
2022/10/21 08:55:41;;;;;;;27.90;17.77;;;14.90;99.90;;;;;;5034368;28;20072;-67
2022/10/21 08:58:14;;;;;;;32.13;20.02;;;15.00;99.90;;;;;;5035325;28;20519;-67
2022/10/21 09:00:53;;;;;;;28.67;18.45;;;14.80;99.90;;;;;;5035481;28;20083;-67
2022/10/21 09:03:54;;;;;;;28.13;19.92;;;14.90;99.90;;;;;;5034846;28;20096;-67
2022/10/21 09:06:26;;;;;;;27.88;19.50;;;14.90;99.90;;;;;;5012694;28;20034;-68
2022/10/21 09:09:19;;;;;;;28.95;19.20;;;15.00;99.90;;;;;;5005167;28;20030;-67
2022/10/21 09:12:03;;;;;;;27.55;18.38;;;15.00;99.90;;;;;;5023139;28;20407;-67
2022/10/21 09:14:53;;;;;;;27.38;18.70;;;15.30;99.90;;;;;;5018730;28;20038;-67
2022/10/21 09:17:49;;;;;;;27.10;18.90;;;15.40;99.90;;;;;;5020423;28;20036;-67
2022/10/21 09:20:28;;;;;;;26.98;17.85;;;15.60;99.90;;;;;;5013196;28;20110;-67
2022/10/21 09:23:25;;;;;;;26.85;18.40;;;15.60;99.90;;;;;;5004826;28;20050;-67
2022/10/21 09:26:00;;;;;;;24.80;16.95;;;15.50;99.90;;;;;;5001914;28;20412;-67
2022/10/21 09:28:29;;;;;;;26.08;18.00;;;15.80;99.90;;;;;;4995598;28;20045;-67
2022/10/21 09:30:59;;;;;;;23.27;16.90;;;15.70;99.90;;;;;;4995663;28;20046;-67
2022/10/21 09:33:30;;;;;;;26.08;16.42;;;16.00;99.90;;;;;;4995583;28;20042;-67
2022/10/21 09:36:05;;;;;;;23.15;16.92;;;16.00;99.90;;;;;;4995735;28;20050;-67
2022/10/21 09:38:45;;;;;;;23.48;17.27;;;16.10;99.90;;;;;;4995530;28;20113;-68
2022/10/21 09:41:20;;;;;;;21.63;14.98;;;16.00;99.90;;;;;;4995331;28;20136;-68
2022/10/21 09:43:47;;;;;;;22.63;15.70;;;15.70;99.90;;;;;;5007995;28;20049;-68
2022/10/21 09:46:14;;;;;;;22.73;15.10;;;15.70;99.90;;;;;;5014011;28;20073;-68
2022/10/21 09:48:49;;;;;;;24.80;16.73;;;15.90;99.90;;;;;;5006691;28;20412;-66
2022/10/21 09:51:27;;;;;;;22.52;15.40;;;15.80;99.90;;;;;;4995088;28;20038;-67
2022/10/21 09:54:23;;;;;;;22.15;15.57;;;16.10;99.90;;;;;;4995017;28;20097;-67
2022/10/21 09:56:53;;;;;;;25.52;15.98;;;16.10;99.90;;;;;;5002121;28;20139;-67
2022/10/21 09:59:21;;;;;;;27.23;16.20;;;15.70;99.90;;;;;;5013823;28;20423;-67
2022/10/21 10:01:47;;;;;;;23.50;16.23;;;16.10;99.90;;;;;;5004563;28;20042;-67
2022/10/21 10:04:29;;;;;;;21.65;15.38;;;15.90;99.90;;;;;;4994660;28;20045;-67
2022/10/21 10:06:57;;;;;;;21.73;15.68;;;16.00;99.90;;;;;;5007227;28;20201;-67
2022/10/21 10:09:30;;;;;;;26.35;15.80;;;15.80;99.90;;;;;;5013972;28;20049;-67
2022/10/21 10:12:09;;;;;;;23.17;16.55;;;16.00;99.90;;;;;;5013531;28;20050;-68
2022/10/21 10:14:41;;;;;;;21.83;14.85;;;15.90;99.90;;;;;;5013504;28;20045;-67
2022/10/21 10:17:30;;;;;;;24.73;16.27;;;16.00;99.90;;;;;;5013606;28;20042;-67
2022/10/21 10:20:07;;;;;;;23.48;14.45;;;16.20;99.90;;;;;;5013655;28;20081;-68
2022/10/21 10:22:36;;;;;;;21.90;13.30;;;16.30;99.90;;;;;;5012948;28;20038;-67
2022/10/21 10:25:16;;;;;;;21.17;13.05;;;16.30;99.90;;;;;;5013189;28;20034;-67
2022/10/21 10:28:01;;;;;;;18.77;14.02;;;16.60;99.90;;;;;;5013425;28;20038;-66
2022/10/21 10:30:42;;;;;;;18.65;13.73;;;16.60;99.90;;;;;;5013271;28;20042;-67
2022/10/21 10:33:28;;;;;;;24.10;13.77;;;16.40;99.90;;;;;;5013010;28;20042;-68
2022/10/21 10:36:02;;;;;;;19.77;12.45;;;16.40;99.90;;;;;;5013386;28;20042;-68
2022/10/21 10:38:37;;;;;;;18.70;13.82;;;16.50;99.90;;;;;;5013067;28;20042;-67
2022/10/21 10:41:08;;;;;;;21.65;13.93;;;16.40;99.90;;;;;;5013041;28;20045;-67
2022/10/21 10:43:41;;;;;;;19.23;14.38;;;16.50;99.90;;;;;;5012349;28;20104;-67
2022/10/21 10:46:10;;;;;;;21.70;14.27;;;16.60;99.90;;;;;;5013069;28;20100;-67
2022/10/21 10:48:45;;;;;;;22.60;13.27;;;16.50;99.90;;;;;;5013029;28;20269;-67
2022/10/21 10:51:26;;;;;;;21.38;14.77;;;16.60;99.90;;;;;;5012924;28;20116;-67
2022/10/21 10:54:26;;;;;;;21.10;14.52;;;16.50;99.90;;;;;;5005826;28;20062;-67
2022/10/21 10:57:07;;;;;;;21.85;13.68;;;16.30;99.90;;;;;;4985372;28;20053;-67
2022/10/21 10:59:33;;;;;;;17.67;14.18;;;16.30;99.90;;;;;;4993905;28;20050;-67
2022/10/21 11:02:17;;;;;;;17.67;13.18;;;16.40;99.90;;;;;;4993595;28;20042;-67
2022/10/21 11:05:10;;;;;;;19.02;12.55;;;16.60;99.90;;;;;;5005338;28;20041;-67
2022/10/21 11:07:45;;;;;;;17.33;12.27;;;16.30;99.90;;;;;;5002217;28;20575;-68
2022/10/21 11:10:34;;;;;;;19.15;13.10;;;16.60;99.90;;;;;;5003312;28;20045;-67
2022/10/21 11:13:02;;;;;;;20.65;14.07;;;16.40;99.90;;;;;;5007936;28;20041;-67
2022/10/21 11:15:45;;;;;;;19.17;12.50;;;16.30;99.90;;;;;;4993620;28;20046;-67
2022/10/21 11:18:34;;;;;;;19.70;13.63;;;16.30;99.90;;;;;;4992893;28;20038;-67
2022/10/21 11:21:13;;;;;;;18.17;12.88;;;16.70;99.90;;;;;;5006532;28;20499;-68
2022/10/21 11:24:15;;;;;;;18.70;13.80;;;16.80;99.90;;;;;;5016413;28;20039;-67
2022/10/21 11:27:10;;;;;;;17.92;13.23;;;16.90;99.90;;;;;;5018973;28;20038;-67
2022/10/21 11:30:06;;;;;;;17.75;13.20;;;16.50;99.90;;;;;;5017539;28;20117;-68
2022/10/21 11:32:41;;;;;;;17.40;12.85;;;16.70;99.90;;;;;;5007743;28;20034;-67
2022/10/21 11:35:30;;;;;;;20.13;14.05;;;17.00;99.90;;;;;;4993246;28;20042;-68
2022/10/21 11:38:19;;;;;;;19.50;12.80;;;16.90;99.90;;;;;;4992215;28;20081;-67
2022/10/21 11:40:48;;;;;;;19.48;12.85;;;17.00;99.90;;;;;;5005311;28;20050;-68
2022/10/21 11:43:25;;;;;;;18.42;11.43;;;16.80;99.90;;;;;;5011565;28;20037;-68
2022/10/21 11:45:57;;;;;;;16.25;11.75;;;17.00;99.90;;;;;;5011889;28;20041;-67
2022/10/21 11:49:21;;;;;;;16.10;10.93;;;17.00;99.90;;;;;;5010157;28;20124;-67
2022/10/21 11:52:05;;;;;;;16.80;10.25;;;17.10;99.90;;;;;;4969228;28;20047;-68
2022/10/21 11:54:49;;;;;;;16.88;10.85;;;17.10;99.90;;;;;;5004893;28;20030;-68
2022/10/21 11:57:17;;;;;;;14.57;10.40;;;16.90;99.90;;;;;;4993222;28;20370;-67
2022/10/21 11:59:45;;;;;;;15.30;10.90;;;17.10;99.90;;;;;;4992746;28;20050;-67
2022/10/21 12:02:23;;;;;;;18.10;11.00;;;17.10;99.90;;;;;;4992477;28;20046;-68
2022/10/21 12:04:58;;;;;;;15.50;9.63;;;16.80;99.90;;;;;;4992427;28;20049;-68
2022/10/21 12:07:52;;;;;;;16.67;10.90;;;16.80;99.90;;;;;;4992935;28;20060;-68
2022/10/21 12:10:34;;;;;;;16.95;11.60;;;17.00;99.90;;;;;;5005395;28;20041;-68
2022/10/21 12:13:12;;;;;;;19.50;11.07;;;16.80;99.90;;;;;;5011123;28;20049;-68
2022/10/21 12:15:42;;;;;;;17.67;11.38;;;16.80;99.90;;;;;;5011099;28;20559;-68
2022/10/21 12:18:14;;;;;;;20.48;12.05;;;17.10;99.90;;;;;;5011467;28;20133;-67
2022/10/21 12:20:41;;;;;;;14.02;10.82;;;17.00;99.90;;;;;;5011516;28;20403;-67
2022/10/21 12:23:11;;;;;;;15.90;10.65;;;16.80;99.90;;;;;;5011055;28;20074;-67
2022/10/21 12:25:51;;;;;;;16.13;10.65;;;16.70;99.90;;;;;;5011283;28;20507;-67
2022/10/21 12:28:30;;;;;;;19.30;11.45;;;16.80;99.90;;;;;;5011320;28;20042;-67
2022/10/21 12:31:07;;;;;;;20.85;11.43;;;17.00;99.90;;;;;;4992412;28;20038;-67
2022/10/21 12:33:47;;;;;;;16.95;11.80;;;16.90;99.90;;;;;;4992054;28;20053;-68
2022/10/21 12:36:37;;;;;;;15.93;9.93;;;16.90;99.90;;;;;;4992058;28;20042;-67
2022/10/21 12:39:03;;;;;;;17.67;11.55;;;16.80;99.90;;;;;;4992419;28;20451;-67
2022/10/21 12:41:33;;;;;;;13.90;11.23;;;16.70;99.90;;;;;;4992333;28;20038;-67
2022/10/21 12:44:04;;;;;;;18.25;10.75;;;16.70;99.90;;;;;;4991362;28;20049;-67
2022/10/21 12:46:37;;;;;;;18.52;10.70;;;17.10;99.90;;;;;;5002049;28;20073;-67
2022/10/21 12:49:19;;;;;;;20.70;10.07;;;17.10;99.90;;;;;;5004312;28;20052;-67